sensor_id;sensor_type;location;lat;lon;timestamp;pressure;altitude;pressure_sealevel;temperature;humidity
75192;BME280;63771;52.580;9.734;2023-07-20T00:01:30;100900.56;;;15.85;79.87
75192;BME280;63771;52.580;9.734;2023-07-20T00:03:55;100893.03;;;15.75;80.87
75192;BME280;63771;52.580;9.734;2023-07-20T00:06:21;100900.66;;;15.73;80.57
75192;BME280;63771;52.580;9.734;2023-07-20T00:08:47;100896.41;;;15.74;80.49
75192;BME280;63771;52.580;9.734;2023-07-20T00:11:13;100891.56;;;15.78;80.01
75192;BME280;63771;52.580;9.734;2023-07-20T00:13:39;100891.28;;;15.74;80.72
75192;BME280;63771;52.580;9.734;2023-07-20T00:16:04;100893.63;;;15.71;80.47
75192;BME280;63771;52.580;9.734;2023-07-20T00:18:30;100891.06;;;15.71;80.32
75192;BME280;63771;52.580;9.734;2023-07-20T00:20:55;100887.72;;;15.72;79.97
75192;BME280;63771;52.580;9.734;2023-07-20T00:23:20;100895.13;;;15.67;80.72
75192;BME280;63771;52.580;9.734;2023-07-20T00:25:48;100887.00;;;15.61;80.73
75192;BME280;63771;52.580;9.734;2023-07-20T00:28:13;100887.00;;;15.61;80.67
75192;BME280;63771;52.580;9.734;2023-07-20T00:30:38;100885.19;;;15.60;80.87
75192;BME280;63771;52.580;9.734;2023-07-20T00:33:03;100877.94;;;15.66;79.99
75192;BME280;63771;52.580;9.734;2023-07-20T00:35:29;100881.94;;;15.62;80.82
75192;BME280;63771;52.580;9.734;2023-07-20T00:37:54;100876.59;;;15.59;80.96
75192;BME280;63771;52.580;9.734;2023-07-20T00:40:19;100880.19;;;15.61;80.99
75192;BME280;63771;52.580;9.734;2023-07-20T00:42:45;100874.81;;;15.58;81.23
75192;BME280;63771;52.580;9.734;2023-07-20T00:45:10;100874.44;;;15.52;81.51
75192;BME280;63771;52.580;9.734;2023-07-20T00:47:36;100875.41;;;15.54;81.07
75192;BME280;63771;52.580;9.734;2023-07-20T00:50:02;100878.19;;;15.57;81.12
75192;BME280;63771;52.580;9.734;2023-07-20T00:52:28;100865.41;;;15.59;80.56
75192;BME280;63771;52.580;9.734;2023-07-20T00:54:55;100877.81;;;15.64;80.16
75192;BME280;63771;52.580;9.734;2023-07-20T00:57:22;100872.06;;;15.69;80.34
75192;BME280;63771;52.580;9.734;2023-07-20T00:59:48;100871.19;;;15.68;80.68
75192;BME280;63771;52.580;9.734;2023-07-20T01:02:14;100878.03;;;15.68;80.38
75192;BME280;63771;52.580;9.734;2023-07-20T01:04:39;100877.44;;;15.72;80.05
75192;BME280;63771;52.580;9.734;2023-07-20T01:10:00;100881.56;;;15.83;79.64
75192;BME280;63771;52.580;9.734;2023-07-20T01:12:33;100877.31;;;15.83;79.50
75192;BME280;63771;52.580;9.734;2023-07-20T01:15:01;100876.59;;;15.86;79.25
75192;BME280;63771;52.580;9.734;2023-07-20T01:17:26;100871.44;;;15.86;79.08
75192;BME280;63771;52.580;9.734;2023-07-20T01:19:51;100884.63;;;15.90;78.83
75192;BME280;63771;52.580;9.734;2023-07-20T01:25:21;100882.84;;;15.89;79.63
75192;BME280;63771;52.580;9.734;2023-07-20T01:31:20;100886.22;;;15.88;79.42
75192;BME280;63771;52.580;9.734;2023-07-20T01:33:47;100895.41;;;15.85;79.45
75192;BME280;63771;52.580;9.734;2023-07-20T01:36:14;100895.22;;;15.82;79.67
75192;BME280;63771;52.580;9.734;2023-07-20T01:38:41;100900.16;;;15.79;79.43
75192;BME280;63771;52.580;9.734;2023-07-20T01:41:10;100896.63;;;15.77;79.50
75192;BME280;63771;52.580;9.734;2023-07-20T01:43:36;100897.38;;;15.76;79.61
75192;BME280;63771;52.580;9.734;2023-07-20T01:46:01;100896.41;;;15.74;79.33
75192;BME280;63771;52.580;9.734;2023-07-20T01:48:27;100887.72;;;15.72;79.29
75192;BME280;63771;52.580;9.734;2023-07-20T01:50:52;100885.03;;;15.70;78.98
75192;BME280;63771;52.580;9.734;2023-07-20T01:53:17;100887.50;;;15.69;79.08
75192;BME280;63771;52.580;9.734;2023-07-20T01:55:43;100883.75;;;15.63;78.64
75192;BME280;63771;52.580;9.734;2023-07-20T01:58:08;100886.69;;;15.56;79.71
75192;BME280;63771;52.580;9.734;2023-07-20T02:00:34;100877.19;;;15.55;79.32
75192;BME280;63771;52.580;9.734;2023-07-20T02:02:59;100873.84;;;15.56;78.64
75192;BME280;63771;52.580;9.734;2023-07-20T02:05:24;100873.53;;;15.52;78.83
75192;BME280;63771;52.580;9.734;2023-07-20T02:07:50;100882.66;;;15.47;79.58
75192;BME280;63771;52.580;9.734;2023-07-20T02:10:15;100881.53;;;15.43;78.67
75192;BME280;63771;52.580;9.734;2023-07-20T02:12:41;100878.09;;;15.43;78.79
75192;BME280;63771;52.580;9.734;2023-07-20T02:15:07;100873.84;;;15.43;78.30
75192;BME280;63771;52.580;9.734;2023-07-20T02:17:33;100884.63;;;15.37;79.09
75192;BME280;63771;52.580;9.734;2023-07-20T02:19:58;100897.16;;;15.33;79.32
75192;BME280;63771;52.580;9.734;2023-07-20T02:22:24;100889.44;;;15.20;80.75
75192;BME280;63771;52.580;9.734;2023-07-20T02:24:49;100884.69;;;15.12;80.06
75192;BME280;63771;52.580;9.734;2023-07-20T02:27:15;100883.88;;;15.13;80.00
75192;BME280;63771;52.580;9.734;2023-07-20T02:29:41;100883.13;;;15.14;79.71
75192;BME280;63771;52.580;9.734;2023-07-20T02:32:07;100887.38;;;15.14;79.88
75192;BME280;63771;52.580;9.734;2023-07-20T02:34:33;100885.38;;;15.10;80.19
75192;BME280;63771;52.580;9.734;2023-07-20T02:36:58;100891.09;;;15.06;80.58
75192;BME280;63771;52.580;9.734;2023-07-20T02:39:27;100889.41;;;15.06;80.31
75192;BME280;63771;52.580;9.734;2023-07-20T02:41:53;100892.69;;;15.04;80.05
75192;BME280;63771;52.580;9.734;2023-07-20T02:44:18;100885.88;;;15.04;80.02
75192;BME280;63771;52.580;9.734;2023-07-20T02:46:43;100886.63;;;15.03;80.53
75192;BME280;63771;52.580;9.734;2023-07-20T02:49:09;100887.81;;;15.08;79.77
75192;BME280;63771;52.580;9.734;2023-07-20T02:51:34;100890.00;;;15.02;80.74
75192;BME280;63771;52.580;9.734;2023-07-20T02:54:00;100888.22;;;15.01;80.81
75192;BME280;63771;52.580;9.734;2023-07-20T02:56:25;100888.44;;;15.04;80.35
75192;BME280;63771;52.580;9.734;2023-07-20T02:58:51;100890.00;;;15.02;80.95
75192;BME280;63771;52.580;9.734;2023-07-20T03:01:16;100884.66;;;14.99;81.30
75192;BME280;63771;52.580;9.734;2023-07-20T03:03:44;100885.66;;;15.01;80.94
75192;BME280;63771;52.580;9.734;2023-07-20T03:06:16;100883.16;;;15.03;80.62
75192;BME280;63771;52.580;9.734;2023-07-20T03:08:42;100889.41;;;15.06;80.69
75192;BME280;63771;52.580;9.734;2023-07-20T03:11:10;100888.63;;;15.07;80.73
75192;BME280;63771;52.580;9.734;2023-07-20T03:13:35;100893.75;;;15.07;80.35
75192;BME280;63771;52.580;9.734;2023-07-20T03:16:01;100897.13;;;15.06;80.96
75192;BME280;63771;52.580;9.734;2023-07-20T03:18:26;100894.56;;;15.06;80.94
75192;BME280;63771;52.580;9.734;2023-07-20T03:20:51;100905.81;;;15.08;81.20
75192;BME280;63771;52.580;9.734;2023-07-20T03:23:17;100904.03;;;15.07;81.99
75192;BME280;63771;52.580;9.734;2023-07-20T03:25:42;100898.91;;;15.07;81.69
75192;BME280;63771;52.580;9.734;2023-07-20T03:28:07;100899.91;;;15.09;81.77
75192;BME280;63771;52.580;9.734;2023-07-20T03:30:33;100909.41;;;15.10;81.11
75192;BME280;63771;52.580;9.734;2023-07-20T03:32:58;100906.91;;;15.12;81.35
75192;BME280;63771;52.580;9.734;2023-07-20T03:35:23;100903.69;;;15.14;81.56
75192;BME280;63771;52.580;9.734;2023-07-20T03:37:49;100896.94;;;15.17;81.08
75192;BME280;63771;52.580;9.734;2023-07-20T03:40:14;100898.84;;;15.19;81.23
75192;BME280;63771;52.580;9.734;2023-07-20T03:42:41;100901.69;;;15.24;80.77
75192;BME280;63771;52.580;9.734;2023-07-20T03:45:07;100900.00;;;15.24;81.11
75192;BME280;63771;52.580;9.734;2023-07-20T03:47:32;100898.34;;;15.25;81.85
75192;BME280;63771;52.580;9.734;2023-07-20T03:49:58;100903.50;;;15.25;81.88
75192;BME280;63771;52.580;9.734;2023-07-20T03:52:23;100897.75;;;15.29;81.54
75192;BME280;63771;52.580;9.734;2023-07-20T03:54:49;100899.72;;;15.33;80.68
75192;BME280;63771;52.580;9.734;2023-07-20T03:57:16;100905.09;;;15.36;81.56
75192;BME280;63771;52.580;9.734;2023-07-20T03:59:45;100904.06;;;15.34;81.73
75192;BME280;63771;52.580;9.734;2023-07-20T04:02:10;100903.91;;;15.31;82.15
75192;BME280;63771;52.580;9.734;2023-07-20T04:04:35;100910.81;;;15.32;81.95
75192;BME280;63771;52.580;9.734;2023-07-20T04:07:01;100908.16;;;15.30;82.78
75192;BME280;63771;52.580;9.734;2023-07-20T04:09:26;100911.41;;;15.28;83.09
75192;BME280;63771;52.580;9.734;2023-07-20T04:11:51;100913.97;;;15.28;83.15
75192;BME280;63771;52.580;9.734;2023-07-20T04:14:16;100920.56;;;15.24;84.15
75192;BME280;63771;52.580;9.734;2023-07-20T04:16:42;100920.28;;;15.20;84.43
75192;BME280;63771;52.580;9.734;2023-07-20T04:19:07;100923.63;;;15.19;84.55
75192;BME280;63771;52.580;9.734;2023-07-20T04:21:39;100931.16;;;15.16;85.49
75192;BME280;63771;52.580;9.734;2023-07-20T04:24:06;100935.91;;;15.09;85.55
75192;BME280;63771;52.580;9.734;2023-07-20T04:26:31;100937.84;;;15.00;86.90
75192;BME280;63771;52.580;9.734;2023-07-20T04:28:56;100934.06;;;14.95;87.07
75192;BME280;63771;52.580;9.734;2023-07-20T04:31:24;100936.63;;;14.95;87.44
75192;BME280;63771;52.580;9.734;2023-07-20T04:33:49;100933.28;;;14.96;86.98
75192;BME280;63771;52.580;9.734;2023-07-20T04:36:15;100940.16;;;14.84;88.89
75192;BME280;63771;52.580;9.734;2023-07-20T04:38:44;100941.53;;;14.79;89.04
75192;BME280;63771;52.580;9.734;2023-07-20T04:41:09;100941.28;;;14.76;89.98
75192;BME280;63771;52.580;9.734;2023-07-20T04:43:41;100937.44;;;14.69;89.92
75192;BME280;63771;52.580;9.734;2023-07-20T04:46:08;100933.88;;;14.67;89.74
75192;BME280;63771;52.580;9.734;2023-07-20T04:48:33;100936.44;;;14.67;91.38
75192;BME280;63771;52.580;9.734;2023-07-20T04:50:59;100928.50;;;14.64;91.01
75192;BME280;63771;52.580;9.734;2023-07-20T04:53:24;100933.75;;;14.66;90.90
75192;BME280;63771;52.580;9.734;2023-07-20T04:55:50;100928.88;;;14.57;91.88
75192;BME280;63771;52.580;9.734;2023-07-20T04:58:17;100933.00;;;14.55;91.81
75192;BME280;63771;52.580;9.734;2023-07-20T05:00:43;100933.31;;;14.59;92.20
75192;BME280;63771;52.580;9.734;2023-07-20T05:03:09;100940.25;;;14.60;91.99
75192;BME280;63771;52.580;9.734;2023-07-20T05:05:34;100937.31;;;14.68;91.06
75192;BME280;63771;52.580;9.734;2023-07-20T05:07:59;100938.31;;;14.70;91.54
75192;BME280;63771;52.580;9.734;2023-07-20T05:10:25;100944.44;;;14.72;91.49
75192;BME280;63771;52.580;9.734;2023-07-20T05:12:50;100942.66;;;14.71;91.87
75192;BME280;63771;52.580;9.734;2023-07-20T05:15:15;100940.47;;;14.64;92.44
75192;BME280;63771;52.580;9.734;2023-07-20T05:17:41;100943.81;;;14.63;92.87
75192;BME280;63771;52.580;9.734;2023-07-20T05:20:07;100935.66;;;14.68;92.09
75192;BME280;63771;52.580;9.734;2023-07-20T05:22:35;100941.78;;;14.70;92.38
75192;BME280;63771;52.580;9.734;2023-07-20T05:25:00;100938.63;;;14.74;92.44
75192;BME280;63771;52.580;9.734;2023-07-20T05:27:25;100948.03;;;14.74;93.13
75192;BME280;63771;52.580;9.734;2023-07-20T05:29:50;100950.03;;;14.78;92.69
75192;BME280;63771;52.580;9.734;2023-07-20T05:32:16;100953.78;;;14.83;92.39
75192;BME280;63771;52.580;9.734;2023-07-20T05:34:42;100948.44;;;14.80;92.84
75192;BME280;63771;52.580;9.734;2023-07-20T05:37:10;100953.66;;;14.81;93.10
75192;BME280;63771;52.580;9.734;2023-07-20T05:39:35;100955.56;;;14.84;93.24
75192;BME280;63771;52.580;9.734;2023-07-20T05:42:01;100959.91;;;14.85;93.66
75192;BME280;63771;52.580;9.734;2023-07-20T05:44:26;100954.88;;;14.86;92.94
75192;BME280;63771;52.580;9.734;2023-07-20T05:46:51;100958.22;;;14.85;92.98
75192;BME280;63771;52.580;9.734;2023-07-20T05:49:16;100958.56;;;14.90;92.90
75192;BME280;63771;52.580;9.734;2023-07-20T05:51:42;100962.41;;;14.97;92.43
75192;BME280;63771;52.580;9.734;2023-07-20T05:54:07;100961.94;;;15.02;92.50
75192;BME280;63771;52.580;9.734;2023-07-20T05:56:33;100958.72;;;15.05;91.88
75192;BME280;63771;52.580;9.734;2023-07-20T05:58:58;100949.50;;;15.08;91.64
75192;BME280;63771;52.580;9.734;2023-07-20T06:01:24;100951.81;;;15.17;90.60
75192;BME280;63771;52.580;9.734;2023-07-20T06:03:52;100952.91;;;15.21;91.48
75192;BME280;63771;52.580;9.734;2023-07-20T06:06:17;100952.91;;;15.21;91.84
75192;BME280;63771;52.580;9.734;2023-07-20T06:08:43;100967.44;;;15.20;93.08
75192;BME280;63771;52.580;9.734;2023-07-20T06:11:08;100971.69;;;15.20;92.60
75192;BME280;63771;52.580;9.734;2023-07-20T06:13:33;100964.88;;;15.20;92.37
75192;BME280;63771;52.580;9.734;2023-07-20T06:15:59;100966.75;;;15.23;91.38
75192;BME280;63771;52.580;9.734;2023-07-20T06:18:24;100971.22;;;15.25;91.17
75192;BME280;63771;52.580;9.734;2023-07-20T06:20:53;100971.41;;;15.28;90.31
75192;BME280;63771;52.580;9.734;2023-07-20T06:23:19;100969.41;;;15.24;91.20
75192;BME280;63771;52.580;9.734;2023-07-20T06:25:45;100978.81;;;15.24;90.38
75192;BME280;63771;52.580;9.734;2023-07-20T06:28:10;100975.47;;;15.25;90.38
75192;BME280;63771;52.580;9.734;2023-07-20T06:30:36;100977.44;;;15.29;91.38
75192;BME280;63771;52.580;9.734;2023-07-20T06:33:01;100980.72;;;15.39;87.82
75192;BME280;63771;52.580;9.734;2023-07-20T06:35:26;100982.94;;;15.47;89.16
75192;BME280;63771;52.580;9.734;2023-07-20T06:37:52;100985.59;;;15.48;88.47
75192;BME280;63771;52.580;9.734;2023-07-20T06:40:17;100982.94;;;15.47;88.92
75192;BME280;63771;52.580;9.734;2023-07-20T06:42:43;100988.25;;;15.50;87.94
75192;BME280;63771;52.580;9.734;2023-07-20T06:45:08;100981.03;;;15.44;89.70
75192;BME280;63771;52.580;9.734;2023-07-20T06:47:34;100975.22;;;15.47;89.41
75192;BME280;63771;52.580;9.734;2023-07-20T06:49:59;100988.56;;;15.54;89.27
75192;BME280;63771;52.580;9.734;2023-07-20T06:52:25;100989.75;;;15.59;89.14
75192;BME280;63771;52.580;9.734;2023-07-20T06:54:50;100992.34;;;15.59;89.16
75192;BME280;63771;52.580;9.734;2023-07-20T06:57:16;100981.06;;;15.57;89.45
75192;BME280;63771;52.580;9.734;2023-07-20T06:59:41;100985.63;;;15.61;89.23
75192;BME280;63771;52.580;9.734;2023-07-20T07:02:07;100985.25;;;15.69;87.68
75192;BME280;63771;52.580;9.734;2023-07-20T07:04:33;100985.25;;;15.69;87.13
75192;BME280;63771;52.580;9.734;2023-07-20T07:06:59;100984.16;;;15.65;87.41
75192;BME280;63771;52.580;9.734;2023-07-20T07:09:25;100990.09;;;15.64;88.56
75192;BME280;63771;52.580;9.734;2023-07-20T07:11:50;100986.72;;;15.65;88.36
75192;BME280;63771;52.580;9.734;2023-07-20T07:14:15;100993.97;;;15.71;87.20
75192;BME280;63771;52.580;9.734;2023-07-20T07:16:40;100999.09;;;15.71;86.06
75192;BME280;63771;52.580;9.734;2023-07-20T07:19:06;100996.53;;;15.71;84.32
75192;BME280;63771;52.580;9.734;2023-07-20T07:21:33;100992.59;;;15.76;84.94
75192;BME280;63771;52.580;9.734;2023-07-20T07:23:58;100997.16;;;15.80;86.03
75192;BME280;63771;52.580;9.734;2023-07-20T07:26:25;101003.56;;;15.86;84.46
75192;BME280;63771;52.580;9.734;2023-07-20T07:28:50;100998.94;;;15.94;84.36
75192;BME280;63771;52.580;9.734;2023-07-20T07:31:15;101003.88;;;15.91;83.29
75192;BME280;63771;52.580;9.734;2023-07-20T07:33:41;100998.94;;;15.94;83.80
75192;BME280;63771;52.580;9.734;2023-07-20T07:36:06;101007.34;;;16.05;83.84
75192;BME280;63771;52.580;9.734;2023-07-20T07:38:32;101002.81;;;16.14;84.54
75192;BME280;63771;52.580;9.734;2023-07-20T07:40:58;101005.34;;;16.27;82.79
75192;BME280;63771;52.580;9.734;2023-07-20T07:43:23;101000.50;;;16.32;80.07
75192;BME280;63771;52.580;9.734;2023-07-20T07:45:48;101000.31;;;16.29;80.27
75192;BME280;63771;52.580;9.734;2023-07-20T07:48:14;101004.66;;;16.30;79.92
75192;BME280;63771;52.580;9.734;2023-07-20T07:50:39;101014.84;;;16.28;78.84
75192;BME280;63771;52.580;9.734;2023-07-20T07:53:08;101012.78;;;16.23;79.76
75192;BME280;63771;52.580;9.734;2023-07-20T07:55:35;101009.22;;;16.21;79.08
75192;BME280;63771;52.580;9.734;2023-07-20T07:58:00;101010.41;;;16.26;79.67
75192;BME280;63771;52.580;9.734;2023-07-20T08:00:26;101012.28;;;16.28;78.55
75192;BME280;63771;52.580;9.734;2023-07-20T08:02:51;101016.16;;;16.35;77.33
75192;BME280;63771;52.580;9.734;2023-07-20T08:05:16;101011.38;;;16.41;76.82
75192;BME280;63771;52.580;9.734;2023-07-20T08:07:42;101003.44;;;16.51;76.85
75192;BME280;63771;52.580;9.734;2023-07-20T08:10:07;101006.75;;;16.63;74.21
75192;BME280;63771;52.580;9.734;2023-07-20T08:12:33;101013.34;;;16.72;73.61
75192;BME280;63771;52.580;9.734;2023-07-20T08:14:59;101012.09;;;16.80;72.24
75192;BME280;63771;52.580;9.734;2023-07-20T08:17:24;101006.63;;;16.88;72.22
75192;BME280;63771;52.580;9.734;2023-07-20T08:19:50;101021.66;;;16.95;71.63
75192;BME280;63771;52.580;9.734;2023-07-20T08:22:15;101011.63;;;17.00;71.78
75192;BME280;63771;52.580;9.734;2023-07-20T08:24:42;101013.16;;;16.97;70.41
75192;BME280;63771;52.580;9.734;2023-07-20T08:27:08;101016.78;;;17.00;71.51
75192;BME280;63771;52.580;9.734;2023-07-20T08:29:37;101017.00;;;17.03;69.76
75192;BME280;63771;52.580;9.734;2023-07-20T08:32:03;101013.69;;;17.06;69.32
75192;BME280;63771;52.580;9.734;2023-07-20T08:34:29;101015.84;;;17.13;67.92
75192;BME280;63771;52.580;9.734;2023-07-20T08:36:55;101016.13;;;17.17;68.73
75192;BME280;63771;52.580;9.734;2023-07-20T08:39:20;101012.84;;;17.20;68.37
75192;BME280;63771;52.580;9.734;2023-07-20T08:41:48;101018.59;;;17.16;68.15
75192;BME280;63771;52.580;9.734;2023-07-20T08:44:13;101022.72;;;17.12;69.05
75192;BME280;63771;52.580;9.734;2023-07-20T08:46:40;101024.28;;;17.10;67.36
75192;BME280;63771;52.580;9.734;2023-07-20T08:49:06;101020.81;;;17.10;67.56
75192;BME280;63771;52.580;9.734;2023-07-20T08:51:33;101012.38;;;17.12;67.37
75192;BME280;63771;52.580;9.734;2023-07-20T08:53:59;101022.25;;;17.19;64.97
75192;BME280;63771;52.580;9.734;2023-07-20T08:56:25;101019.34;;;17.28;64.78
75192;BME280;63771;52.580;9.734;2023-07-20T08:58:54;101030.47;;;17.42;65.17
75192;BME280;63771;52.580;9.734;2023-07-20T09:01:21;101021.59;;;17.52;60.80
75192;BME280;63771;52.580;9.734;2023-07-20T09:03:47;101014.31;;;17.59;59.64
75192;BME280;63771;52.580;9.734;2023-07-20T09:06:13;101012.25;;;17.68;62.64
75192;BME280;63771;52.580;9.734;2023-07-20T09:08:42;101008.00;;;17.84;58.92
75192;BME280;63771;52.580;9.734;2023-07-20T09:11:11;101009.34;;;17.92;60.53
75192;BME280;63771;52.580;9.734;2023-07-20T09:13:37;101006.91;;;17.95;58.62
75192;BME280;63771;52.580;9.734;2023-07-20T09:16:02;101010.31;;;17.94;58.90
75192;BME280;63771;52.580;9.734;2023-07-20T09:18:31;101003.44;;;17.94;59.94
75192;BME280;63771;52.580;9.734;2023-07-20T09:21:06;101004.19;;;17.92;60.22
75192;BME280;63771;52.580;9.734;2023-07-20T09:23:33;101014.50;;;17.92;59.83
75192;BME280;63771;52.580;9.734;2023-07-20T09:25:58;101013.63;;;17.91;59.07
75192;BME280;63771;52.580;9.734;2023-07-20T09:28:24;101002.41;;;17.91;59.03
75192;BME280;63771;52.580;9.734;2023-07-20T09:30:49;101004.88;;;17.89;59.05
75192;BME280;63771;52.580;9.734;2023-07-20T09:33:18;101007.56;;;17.91;59.94
75192;BME280;63771;52.580;9.734;2023-07-20T09:35:44;101010.91;;;17.90;59.75
75192;BME280;63771;52.580;9.734;2023-07-20T09:38:10;101007.72;;;17.94;61.16
75192;BME280;63771;52.580;9.734;2023-07-20T09:40:38;101014.22;;;18.02;59.80
75192;BME280;63771;52.580;9.734;2023-07-20T09:43:07;101013.94;;;18.12;60.56
75192;BME280;63771;52.580;9.734;2023-07-20T09:45:34;101013.53;;;18.21;58.79
75192;BME280;63771;52.580;9.734;2023-07-20T09:48:06;101009.63;;;18.28;60.21
75192;BME280;63771;52.580;9.734;2023-07-20T09:50:42;101010.53;;;18.28;58.55
75192;BME280;63771;52.580;9.734;2023-07-20T09:53:11;101011.56;;;18.32;58.21
75192;BME280;63771;52.580;9.734;2023-07-20T09:55:39;101006.25;;;18.29;57.28
75192;BME280;63771;52.580;9.734;2023-07-20T09:58:05;101011.41;;;18.29;57.53
75192;BME280;63771;52.580;9.734;2023-07-20T10:00:32;101014.50;;;18.38;57.27
75192;BME280;63771;52.580;9.734;2023-07-20T10:02:59;101011.78;;;18.51;57.83
75192;BME280;63771;52.580;9.734;2023-07-20T10:05:28;101015.19;;;18.66;58.82
75192;BME280;63771;52.580;9.734;2023-07-20T10:07:58;101009.41;;;18.70;57.16
75192;BME280;63771;52.580;9.734;2023-07-20T10:10:24;100999.31;;;18.75;57.78
75192;BME280;63771;52.580;9.734;2023-07-20T10:12:50;101006.50;;;18.81;57.96
75192;BME280;63771;52.580;9.734;2023-07-20T10:15:24;101009.34;;;18.85;55.10
75192;BME280;63771;52.580;9.734;2023-07-20T10:18:02;101009.75;;;18.93;56.74
75192;BME280;63771;52.580;9.734;2023-07-20T10:20:28;101009.03;;;18.95;56.49
75192;BME280;63771;52.580;9.734;2023-07-20T10:22:55;101006.44;;;19.12;56.80
75192;BME280;63771;52.580;9.734;2023-07-20T10:25:22;101003.91;;;19.13;54.79
75192;BME280;63771;52.580;9.734;2023-07-20T10:27:48;101009.09;;;19.13;56.32
75192;BME280;63771;52.580;9.734;2023-07-20T10:30:14;101000.03;;;19.05;55.26
75192;BME280;63771;52.580;9.734;2023-07-20T10:32:41;101000.13;;;19.07;56.37
75192;BME280;63771;52.580;9.734;2023-07-20T10:35:14;100995.03;;;19.08;53.86
75192;BME280;63771;52.580;9.734;2023-07-20T10:37:51;100996.56;;;19.04;53.39
75192;BME280;63771;52.580;9.734;2023-07-20T10:40:27;100993.88;;;19.19;50.62
75192;BME280;63771;52.580;9.734;2023-07-20T10:43:06;100994.94;;;19.23;51.71
75192;BME280;63771;52.580;9.734;2023-07-20T10:45:40;100988.94;;;19.24;51.47
75192;BME280;63771;52.580;9.734;2023-07-20T10:48:12;100989.00;;;19.25;52.87
75192;BME280;63771;52.580;9.734;2023-07-20T10:50:39;100982.25;;;19.27;52.26
75192;BME280;63771;52.580;9.734;2023-07-20T10:53:13;100984.97;;;19.30;51.78
75192;BME280;63771;52.580;9.734;2023-07-20T10:55:40;100982.25;;;19.27;50.39
75192;BME280;63771;52.580;9.734;2023-07-20T10:58:09;100990.25;;;19.32;51.02
75192;BME280;63771;52.580;9.734;2023-07-20T11:00:35;100995.13;;;19.44;43.78
75192;BME280;63771;52.580;9.734;2023-07-20T11:03:01;100984.44;;;19.54;47.53
75192;BME280;63771;52.580;9.734;2023-07-20T11:05:39;100977.69;;;19.74;48.77
75192;BME280;63771;52.580;9.734;2023-07-20T11:08:38;100977.34;;;19.84;49.78
75192;BME280;63771;52.580;9.734;2023-07-20T11:11:26;100977.97;;;19.98;48.84
75192;BME280;63771;52.580;9.734;2023-07-20T11:14:03;100974.72;;;20.02;48.90
75192;BME280;63771;52.580;9.734;2023-07-20T11:16:45;100989.59;;;20.06;48.80
75192;BME280;63771;52.580;9.734;2023-07-20T11:19:24;100973.31;;;20.08;48.34
75192;BME280;63771;52.580;9.734;2023-07-20T11:21:52;100978.78;;;20.15;48.81
75192;BME280;63771;52.580;9.734;2023-07-20T11:24:18;100980.63;;;20.17;46.69
75192;BME280;63771;52.580;9.734;2023-07-20T11:26:51;100984.41;;;20.24;48.17
75192;BME280;63771;52.580;9.734;2023-07-20T11:29:19;100975.19;;;20.30;45.94
75192;BME280;63771;52.580;9.734;2023-07-20T11:31:45;100992.28;;;20.45;46.29
75192;BME280;63771;52.580;9.734;2023-07-20T11:34:15;100968.38;;;20.50;47.12
75192;BME280;63771;52.580;9.734;2023-07-20T11:36:42;100979.78;;;20.54;43.73
75192;BME280;63771;52.580;9.734;2023-07-20T11:39:09;100978.84;;;20.52;45.19
75192;BME280;63771;52.580;9.734;2023-07-20T11:41:35;100977.41;;;20.58;46.33
75192;BME280;63771;52.580;9.734;2023-07-20T11:44:00;100982.72;;;20.62;46.61
75192;BME280;63771;52.580;9.734;2023-07-20T11:46:28;100972.34;;;20.62;45.45
75192;BME280;63771;52.580;9.734;2023-07-20T11:49:03;100977.75;;;20.66;45.80
75192;BME280;63771;52.580;9.734;2023-07-20T11:51:29;100973.75;;;20.73;45.02
75192;BME280;63771;52.580;9.734;2023-07-20T11:53:55;100975.72;;;20.78;46.91
75192;BME280;63771;52.580;9.734;2023-07-20T11:56:25;100974.22;;;20.83;43.35
75192;BME280;63771;52.580;9.734;2023-07-20T11:58:50;100974.59;;;20.93;42.75
75192;BME280;63771;52.580;9.734;2023-07-20T12:01:19;100966.03;;;20.94;42.92
75192;BME280;63771;52.580;9.734;2023-07-20T12:03:45;100973.19;;;20.99;43.81
75192;BME280;63771;52.580;9.734;2023-07-20T12:06:13;100978.09;;;20.93;42.06
75192;BME280;63771;52.580;9.734;2023-07-20T12:08:43;100975.09;;;20.84;42.73
75192;BME280;63771;52.580;9.734;2023-07-20T12:11:09;100970.81;;;20.84;43.61
75192;BME280;63771;52.580;9.734;2023-07-20T12:13:43;100963.97;;;20.87;42.63
75192;BME280;63771;52.580;9.734;2023-07-20T12:16:13;100966.91;;;20.94;42.39
75192;BME280;63771;52.580;9.734;2023-07-20T12:18:39;100979.38;;;21.03;42.03
75192;BME280;63771;52.580;9.734;2023-07-20T12:21:06;100962.19;;;21.05;43.75
75192;BME280;63771;52.580;9.734;2023-07-20T12:23:37;100966.56;;;21.06;42.41
75192;BME280;63771;52.580;9.734;2023-07-20T12:26:06;100972.38;;;21.00;42.23
75192;BME280;63771;52.580;9.734;2023-07-20T12:28:31;100971.06;;;20.91;42.64
75192;BME280;63771;52.580;9.734;2023-07-20T12:30:57;100976.81;;;20.83;43.21
75192;BME280;63771;52.580;9.734;2023-07-20T12:33:22;100965.34;;;20.78;43.50
75192;BME280;63771;52.580;9.734;2023-07-20T12:35:48;100970.22;;;20.72;42.94
75192;BME280;63771;52.580;9.734;2023-07-20T12:38:13;100976.81;;;20.64;42.95
75192;BME280;63771;52.580;9.734;2023-07-20T12:40:39;100978.09;;;20.54;43.25
75192;BME280;63771;52.580;9.734;2023-07-20T12:43:05;100980.47;;;20.50;45.58
75192;BME280;63771;52.580;9.734;2023-07-20T12:45:32;100981.63;;;20.39;46.97
75192;BME280;63771;52.580;9.734;2023-07-20T12:47:57;100991.22;;;20.22;48.22
75192;BME280;63771;52.580;9.734;2023-07-20T12:50:23;100985.59;;;20.13;49.96
75192;BME280;63771;52.580;9.734;2023-07-20T12:52:48;100984.78;;;20.14;49.81
75192;BME280;63771;52.580;9.734;2023-07-20T12:55:13;100985.31;;;20.06;49.69
75192;BME280;63771;52.580;9.734;2023-07-20T12:57:40;100991.16;;;20.02;50.22